Time;durP1;ratioP1;P1;durP2;ratioP2;P2;SDS_P1;SDS_P2;PMS_P1;PMS_P2;Temp;Humidity;BMP_temperature;BMP_pressure;BME280_temperature;BME280_humidity;BME280_pressure;Samples;Min_cycle;Max_cycle;Signal;HPM_P1;HPM_P2
2023/08/18 00:01:16;;;;;;;10.38;4.78;;;19.70;99.90;;;19.03;100.00;97802.41;4982922;28;20166;-73
2023/08/18 00:03:43;;;;;;;7.78;4.00;;;19.60;99.90;;;19.01;100.00;97804.31;4997088;28;20051;-73
2023/08/18 00:06:11;;;;;;;5.47;3.58;;;19.60;99.90;;;18.99;100.00;97803.56;4981832;28;20136;-74
2023/08/18 00:08:38;;;;;;;7.40;4.28;;;19.50;99.90;;;18.97;100.00;97802.84;4983835;28;20059;-73
2023/08/18 00:11:06;;;;;;;5.75;3.65;;;19.60;99.90;;;19.01;100.00;97805.13;4983104;28;20054;-74
2023/08/18 00:13:33;;;;;;;8.68;3.40;;;19.60;99.90;;;18.96;100.00;97795.91;4986118;28;20054;-74
2023/08/18 00:16:01;;;;;;;6.57;3.97;;;19.50;99.90;;;19.02;100.00;97796.31;4983383;28;20077;-74
2023/08/18 00:18:29;;;;;;;6.15;3.72;;;19.60;99.90;;;18.98;100.00;97794.84;4982907;28;20057;-73
2023/08/18 00:20:56;;;;;;;7.30;3.85;;;19.50;99.90;;;19.02;100.00;97800.72;4980981;28;20133;-73
2023/08/18 00:23:24;;;;;;;4.10;3.42;;;19.50;99.90;;;18.94;100.00;97795.19;4987251;28;20062;-73
2023/08/18 00:25:51;;;;;;;8.57;3.47;;;19.50;99.90;;;18.95;100.00;97791.59;4982770;28;20134;-73
2023/08/18 00:28:18;;;;;;;7.72;2.97;;;19.50;99.90;;;18.84;100.00;97789.78;4981989;28;20074;-73
2023/08/18 00:30:45;;;;;;;6.88;3.60;;;19.40;99.90;;;18.74;100.00;97784.28;4997920;28;20792;-73
2023/08/18 00:33:13;;;;;;;4.88;3.47;;;19.40;99.90;;;18.85;100.00;97791.44;4967079;28;20411;-73
2023/08/18 00:35:40;;;;;;;10.32;4.85;;;19.30;99.90;;;18.79;100.00;97783.97;4995810;28;20046;-73
2023/08/18 00:38:08;;;;;;;10.65;3.83;;;19.30;99.90;;;18.58;100.00;97791.59;4985679;28;20452;-72
2023/08/18 00:40:35;;;;;;;6.05;3.83;;;19.20;99.90;;;18.53;100.00;97785.84;4981242;28;20050;-73
2023/08/18 00:43:02;;;;;;;6.55;3.35;;;19.20;99.90;;;18.49;100.00;97777.31;4979619;28;20059;-73
2023/08/18 00:45:29;;;;;;;5.28;4.13;;;19.10;99.90;;;18.38;100.00;97780.75;4978972;28;20069;-72
2023/08/18 00:47:57;;;;;;;5.90;3.50;;;19.00;99.90;;;18.35;100.00;97785.38;4979873;28;20042;-71
2023/08/18 00:50:24;;;;;;;4.93;3.65;;;19.00;99.90;;;18.13;100.00;97784.25;4982143;28;20058;-71
2023/08/18 00:52:57;;;;;;;4.43;3.30;;;18.90;99.90;;;18.15;100.00;97781.50;4981656;28;20051;-71
2023/08/18 00:55:27;;;;;;;5.63;3.50;;;18.80;99.90;;;18.14;100.00;97791.19;4982076;28;20779;-71
2023/08/18 00:58:00;;;;;;;5.07;3.40;;;18.80;99.90;;;18.17;100.00;97782.25;4982695;28;20130;-71
2023/08/18 01:00:27;;;;;;;6.07;3.38;;;18.70;99.90;;;18.20;100.00;97768.91;4961848;28;20203;-71
2023/08/18 01:02:54;;;;;;;8.40;4.18;;;18.70;99.90;;;18.15;100.00;97771.88;4981452;28;20046;-71
2023/08/18 01:05:22;;;;;;;7.72;3.80;;;18.80;99.90;;;18.18;100.00;97778.69;4972143;28;20054;-72
2023/08/18 01:07:48;;;;;;;5.43;3.38;;;18.70;99.90;;;18.18;100.00;97769.00;4996000;28;20499;-71
2023/08/18 01:10:16;;;;;;;9.10;4.00;;;18.70;99.90;;;18.13;100.00;97760.63;4983451;28;20519;-72
2023/08/18 01:13:15;;;;;;;7.25;4.25;;;18.70;99.90;;;18.09;100.00;97766.19;4985693;28;20456;-70
2023/08/18 01:15:46;;;;;;;5.88;4.30;;;18.70;99.90;;;18.02;100.00;97763.16;4979339;28;20057;-72
2023/08/18 01:18:14;;;;;;;5.43;3.60;;;18.60;99.90;;;18.00;100.00;97762.41;4987266;28;20046;-72
2023/08/18 01:20:42;;;;;;;5.82;3.92;;;18.60;99.90;;;18.04;100.00;97758.63;5013533;28;20133;-71
2023/08/18 01:23:09;;;;;;;6.60;3.97;;;18.60;99.90;;;17.94;100.00;97763.66;4993240;28;20134;-72
2023/08/18 01:25:37;;;;;;;6.82;4.18;;;18.50;99.90;;;17.92;100.00;97749.81;4981622;28;20105;-73
2023/08/18 01:28:23;;;;;;;6.65;4.40;;;18.50;99.90;;;17.94;100.00;97745.28;4990221;28;20193;-71
2023/08/18 01:30:53;;;;;;;8.65;5.57;;;18.50;99.90;;;17.97;100.00;97747.72;4983006;28;20058;-72
2023/08/18 01:33:32;;;;;;;6.25;4.47;;;18.50;99.90;;;18.02;100.00;97742.16;4984840;28;20054;-70
2023/08/18 01:36:07;;;;;;;6.13;4.75;;;18.50;99.90;;;17.90;100.00;97743.84;4967679;28;20104;-72
2023/08/18 01:38:38;;;;;;;6.57;3.28;;;18.50;99.90;;;17.77;100.00;97740.34;4998923;28;20132;-72
2023/08/18 01:41:07;;;;;;;5.10;3.28;;;18.50;99.90;;;17.82;100.00;97748.78;4969841;28;20058;-72
2023/08/18 01:43:36;;;;;;;5.47;3.78;;;18.50;99.90;;;17.78;100.00;97737.59;4989133;28;20435;-72
2023/08/18 01:46:04;;;;;;;5.28;3.53;;;18.40;99.90;;;17.70;100.00;97737.31;4960230;28;20525;-71
2023/08/18 01:48:31;;;;;;;6.13;3.78;;;18.40;99.90;;;17.73;100.00;97737.09;4987471;28;20042;-72
2023/08/18 01:51:00;;;;;;;7.25;3.60;;;18.40;99.90;;;17.72;100.00;97735.41;4968351;28;20054;-71
2023/08/18 01:53:28;;;;;;;5.63;4.20;;;18.30;99.90;;;17.82;100.00;97737.44;4982721;28;20047;-73
2023/08/18 01:56:00;;;;;;;5.63;3.83;;;18.30;99.90;;;17.73;100.00;97729.22;4982383;28;20061;-73
2023/08/18 01:58:28;;;;;;;6.20;4.22;;;18.40;99.90;;;17.67;100.00;97732.25;4994706;28;20141;-73
2023/08/18 02:00:56;;;;;;;8.50;4.72;;;18.40;99.90;;;17.77;100.00;97725.44;4984759;28;20086;-73
2023/08/18 02:03:26;;;;;;;5.15;3.67;;;18.30;99.90;;;17.71;100.00;97722.41;4984671;28;20093;-72
2023/08/18 02:05:54;;;;;;;6.70;3.30;;;18.30;99.90;;;17.66;100.00;97719.25;4997683;28;20625;-73
2023/08/18 02:08:24;;;;;;;4.93;3.28;;;18.30;99.90;;;17.69;100.00;97714.63;4982700;28;20042;-73
2023/08/18 02:11:00;;;;;;;4.63;3.57;;;18.30;99.90;;;17.65;100.00;97714.94;4986207;28;20074;-73
2023/08/18 02:13:28;;;;;;;7.78;4.30;;;18.20;99.90;;;17.64;100.00;97705.41;4967131;28;20054;-71
2023/08/18 02:15:56;;;;;;;7.70;4.60;;;18.20;99.90;;;17.60;100.00;97706.53;4985937;28;20142;-73
2023/08/18 02:18:25;;;;;;;6.53;3.90;;;18.20;99.90;;;17.53;100.00;97712.22;4969848;28;20119;-73
2023/08/18 02:21:02;;;;;;;7.55;5.32;;;18.20;99.90;;;17.58;100.00;97706.63;4983402;28;20086;-73
2023/08/18 02:23:29;;;;;;;6.32;4.03;;;18.10;99.90;;;17.46;100.00;97699.63;4989130;28;20058;-73
2023/08/18 02:26:05;;;;;;;8.10;4.18;;;18.10;99.90;;;17.42;100.00;97695.53;4968757;28;20571;-73
2023/08/18 02:28:33;;;;;;;7.75;3.85;;;18.10;99.90;;;17.40;100.00;97700.88;4983162;28;20050;-73
2023/08/18 02:31:06;;;;;;;5.15;3.35;;;18.00;99.90;;;17.43;100.00;97695.44;4987669;28;20132;-73
2023/08/18 02:33:34;;;;;;;9.07;3.97;;;18.00;99.90;;;17.35;100.00;97692.47;4983138;28;20097;-72
2023/08/18 02:36:02;;;;;;;6.13;4.43;;;18.00;99.90;;;17.67;100.00;97689.41;4985956;28;20136;-72
2023/08/18 02:38:33;;;;;;;7.20;4.85;;;18.00;99.90;;;17.71;100.00;97699.59;4974129;28;20054;-73
2023/08/18 02:41:00;;;;;;;5.72;4.32;;;18.10;99.90;;;17.78;100.00;97698.22;4985320;28;20568;-74
2023/08/18 02:43:28;;;;;;;6.10;3.85;;;18.20;99.90;;;17.76;100.00;97699.28;4983317;28;20046;-73
2023/08/18 02:45:56;;;;;;;7.40;3.95;;;18.20;99.90;;;17.56;100.00;97698.91;4985972;28;20075;-73
2023/08/18 02:48:30;;;;;;;6.13;3.92;;;18.20;99.90;;;17.69;100.00;97698.03;4969953;28;20093;-73
2023/08/18 02:51:03;;;;;;;6.22;4.43;;;18.20;99.90;;;17.69;100.00;97690.16;4971384;28;20113;-73
2023/08/18 02:53:31;;;;;;;7.32;3.97;;;18.20;99.90;;;17.62;100.00;97696.78;5013111;28;20503;-72
2023/08/18 02:56:01;;;;;;;7.93;4.50;;;18.20;99.90;;;17.68;100.00;97688.50;4982800;28;20120;-73
2023/08/18 02:58:30;;;;;;;9.77;5.32;;;18.20;99.90;;;17.82;100.00;97683.13;4980396;28;20073;-73
2023/08/18 03:01:03;;;;;;;7.15;4.45;;;18.20;99.90;;;17.76;100.00;97691.41;4979804;28;20129;-74
2023/08/18 03:03:30;;;;;;;9.80;5.60;;;18.30;99.90;;;17.55;100.00;97688.50;4980596;28;20408;-73
2023/08/18 03:06:07;;;;;;;12.90;5.90;;;18.20;99.90;;;17.63;100.00;97687.94;5016321;28;20467;-74
2023/08/18 03:08:36;;;;;;;6.57;4.18;;;18.20;99.90;;;17.62;100.00;97689.75;4982091;28;20133;-73
2023/08/18 03:11:04;;;;;;;7.65;5.45;;;18.20;99.90;;;17.72;100.00;97696.03;4985565;28;20058;-73
2023/08/18 03:13:32;;;;;;;7.95;6.00;;;18.20;99.90;;;17.77;100.00;97698.34;5013076;28;20148;-73
2023/08/18 03:15:59;;;;;;;7.85;5.80;;;18.30;99.90;;;17.81;100.00;97686.69;4982220;28;20053;-73
2023/08/18 03:18:27;;;;;;;6.45;4.93;;;18.30;99.90;;;17.68;100.00;97689.31;5013237;28;20069;-73
2023/08/18 03:21:00;;;;;;;7.40;4.40;;;18.30;99.90;;;17.44;100.00;97675.28;4978039;28;20051;-73
2023/08/18 03:23:28;;;;;;;6.03;4.70;;;18.20;99.90;;;17.44;100.00;97683.97;4981122;28;20503;-73
2023/08/18 03:26:04;;;;;;;7.15;4.63;;;18.20;99.90;;;17.40;100.00;97687.75;4983561;28;20074;-72
2023/08/18 03:28:34;;;;;;;6.47;5.00;;;18.10;99.90;;;17.53;100.00;97691.22;4982750;28;20046;-74
2023/08/18 03:31:06;;;;;;;10.30;4.82;;;18.00;99.90;;;17.62;100.00;97688.91;4984406;28;20057;-73
2023/08/18 03:33:35;;;;;;;5.50;4.22;;;18.10;99.90;;;17.66;100.00;97687.75;4982467;28;20431;-71
2023/08/18 03:36:03;;;;;;;7.10;5.35;;;18.10;99.90;;;17.60;100.00;97675.88;5010908;28;20062;-73
2023/08/18 03:38:30;;;;;;;6.82;5.25;;;18.10;99.90;;;17.62;100.00;97679.25;4983146;28;20627;-72
2023/08/18 03:41:01;;;;;;;8.02;4.95;;;18.10;99.90;;;17.48;100.00;97676.75;4981480;28;20054;-73
2023/08/18 03:43:29;;;;;;;7.97;6.18;;;18.10;99.90;;;17.40;100.00;97674.63;4997778;28;20056;-73
2023/08/18 03:46:00;;;;;;;12.07;5.85;;;18.10;99.90;;;17.31;100.00;97673.50;4982297;28;20074;-73
2023/08/18 03:48:27;;;;;;;9.75;6.13;;;18.10;99.90;;;17.22;100.00;97679.38;4999487;28;20061;-73
2023/08/18 03:50:55;;;;;;;9.13;5.07;;;18.00;99.90;;;17.30;100.00;97677.06;4980919;28;20054;-72
2023/08/18 03:53:23;;;;;;;13.70;5.90;;;17.90;99.90;;;17.24;100.00;97674.88;4978032;28;20134;-73
2023/08/18 03:55:55;;;;;;;16.73;6.97;;;17.90;99.90;;;17.15;100.00;97675.47;4979946;28;20069;-71
2023/08/18 03:58:22;;;;;;;8.60;4.93;;;17.80;99.90;;;17.08;100.00;97677.69;4986342;28;20050;-73
2023/08/18 04:00:49;;;;;;;7.47;4.30;;;17.80;99.90;;;17.08;100.00;97682.06;4981393;28;20054;-73
2023/08/18 04:03:17;;;;;;;9.65;5.57;;;17.80;99.90;;;17.13;100.00;97674.75;4999783;28;20046;-71
2023/08/18 04:05:45;;;;;;;8.77;5.93;;;17.70;99.90;;;17.14;100.00;97679.88;4980272;28;20161;-73
2023/08/18 04:08:14;;;;;;;8.10;5.50;;;17.80;99.90;;;17.13;100.00;97685.25;4982097;28;20058;-73
2023/08/18 04:10:41;;;;;;;7.35;5.75;;;17.80;99.90;;;17.30;100.00;97681.47;4977736;28;20150;-73
2023/08/18 04:13:08;;;;;;;12.30;8.45;;;17.80;99.90;;;17.39;100.00;97680.00;4981625;28;20396;-73
2023/08/18 04:15:37;;;;;;;8.18;6.25;;;17.90;99.90;;;17.13;100.00;97680.84;4976253;28;20051;-73
2023/08/18 04:18:05;;;;;;;8.95;6.32;;;17.80;99.90;;;17.08;100.00;97680.31;4987076;28;20133;-73
2023/08/18 04:20:32;;;;;;;12.68;6.55;;;17.80;99.90;;;17.01;100.00;97678.19;4986187;28;20052;-73
2023/08/18 04:22:59;;;;;;;9.80;7.38;;;17.80;99.90;;;17.01;100.00;97681.63;5011095;28;20137;-73
2023/08/18 04:25:26;;;;;;;10.52;6.05;;;17.70;99.90;;;16.93;100.00;97684.78;4980985;28;20046;-73
2023/08/18 04:27:53;;;;;;;14.40;6.63;;;17.70;99.90;;;16.92;100.00;97683.13;4982296;28;20062;-73
2023/08/18 04:30:21;;;;;;;11.30;7.15;;;17.60;99.90;;;16.93;100.00;97683.94;4981787;28;20053;-73
2023/08/18 04:32:49;;;;;;;7.80;5.60;;;17.60;99.90;;;16.97;100.00;97689.81;4980115;28;20792;-73
2023/08/18 04:35:16;;;;;;;18.42;7.28;;;17.60;99.90;;;16.99;100.00;97694.03;4982069;28;20530;-73
2023/08/18 04:37:44;;;;;;;19.83;7.43;;;17.60;99.90;;;17.07;100.00;97694.34;4978764;28;20130;-73
2023/08/18 04:40:12;;;;;;;12.18;6.88;;;17.60;99.90;;;17.03;100.00;97699.91;4984431;28;20057;-72
2023/08/18 04:42:39;;;;;;;16.90;7.40;;;17.60;99.90;;;17.04;100.00;97704.22;5011987;28;20159;-73
2023/08/18 04:45:06;;;;;;;22.98;8.05;;;17.70;99.90;;;17.20;100.00;97707.50;4982757;28;20101;-73
2023/08/18 04:47:33;;;;;;;9.75;7.28;;;17.80;99.90;;;17.22;100.00;97710.00;4984953;28;20047;-74
2023/08/18 04:50:01;;;;;;;10.90;7.43;;;17.80;99.90;;;17.24;100.00;97703.72;4984235;28;20491;-73
2023/08/18 04:52:28;;;;;;;10.15;7.38;;;17.80;99.90;;;17.35;100.00;97695.94;5002185;28;20057;-73
2023/08/18 04:54:56;;;;;;;8.98;6.93;;;17.80;99.90;;;17.47;100.00;97689.03;4984142;28;20046;-74
2023/08/18 04:57:23;;;;;;;15.00;9.43;;;17.90;99.90;;;17.55;100.00;97696.38;4981958;28;20547;-73
2023/08/18 04:59:50;;;;;;;10.60;7.88;;;18.00;99.90;;;17.56;100.00;97698.03;4989244;28;20145;-74
2023/08/18 05:02:17;;;;;;;11.02;8.20;;;18.00;99.90;;;17.58;100.00;97704.00;4986868;28;20539;-73
2023/08/18 05:04:44;;;;;;;19.48;11.82;;;18.00;99.90;;;17.58;100.00;97704.00;4982607;28;20815;-73
2023/08/18 05:07:11;;;;;;;16.60;10.75;;;18.00;99.90;;;17.62;100.00;97705.50;4983138;28;20124;-73
2023/08/18 05:09:38;;;;;;;19.67;13.23;;;18.10;99.90;;;17.77;100.00;97707.06;4982987;28;20117;-73
2023/08/18 05:12:08;;;;;;;18.58;11.50;;;18.10;99.90;;;17.82;100.00;97716.44;4981754;28;20431;-74
2023/08/18 05:14:35;;;;;;;12.50;9.80;;;18.20;99.90;;;17.98;100.00;97704.75;4982164;28;20043;-73
2023/08/18 05:17:02;;;;;;;25.30;13.85;;;18.30;99.90;;;18.13;100.00;97701.97;4983254;28;20137;-73
2023/08/18 05:19:29;;;;;;;12.50;8.63;;;18.40;99.90;;;18.26;100.00;97701.94;4980395;28;20077;-72
2023/08/18 05:21:57;;;;;;;24.27;15.57;;;18.50;99.90;;;18.45;100.00;97707.56;4983461;28;20164;-73
2023/08/18 05:24:24;;;;;;;21.10;14.45;;;18.70;99.90;;;18.59;100.00;97703.91;4982842;28;20047;-73
2023/08/18 05:26:52;;;;;;;21.33;14.52;;;18.80;99.90;;;18.71;100.00;97705.63;4988023;28;20426;-72
2023/08/18 05:29:19;;;;;;;30.38;16.83;;;18.90;99.90;;;18.81;100.00;97706.66;4984162;28;20726;-73
2023/08/18 05:31:47;;;;;;;16.70;12.02;;;19.00;99.90;;;18.93;100.00;97711.94;4978668;28;20204;-73
2023/08/18 05:34:14;;;;;;;24.77;15.27;;;19.10;99.90;;;18.96;100.00;97709.13;4982381;28;20050;-73
2023/08/18 05:36:41;;;;;;;30.65;15.55;;;19.20;99.90;;;18.97;100.00;97713.41;4985571;28;20112;-73
2023/08/18 05:39:08;;;;;;;84.88;18.13;;;19.30;99.90;;;19.03;100.00;97718.22;4986882;28;20061;-74
2023/08/18 05:41:35;;;;;;;94.97;24.98;;;19.30;99.90;;;18.99;100.00;97711.50;4985598;28;20133;-73
2023/08/18 05:44:03;;;;;;;50.10;20.52;;;19.30;99.90;;;19.16;100.00;97726.03;4982965;28;20074;-73
2023/08/18 05:46:30;;;;;;;78.97;19.45;;;19.40;99.90;;;19.22;100.00;97723.75;4985111;28;20050;-73
2023/08/18 05:48:57;;;;;;;49.08;17.40;;;19.40;99.90;;;19.32;100.00;97726.56;4981307;28;20050;-74
2023/08/18 05:51:24;;;;;;;57.22;22.13;;;19.50;99.90;;;19.38;100.00;97722.59;4985599;28;20057;-73
2023/08/18 05:53:52;;;;;;;148.85;30.38;;;19.50;99.90;;;19.36;100.00;97722.75;4999827;28;20130;-73
2023/08/18 05:56:19;;;;;;;110.90;24.08;;;19.60;99.90;;;19.33;100.00;97727.38;4984783;28;20673;-73
2023/08/18 05:58:46;;;;;;;79.35;24.80;;;19.60;99.90;;;19.30;100.00;97730.25;4983054;28;20535;-73
2023/08/18 06:01:14;;;;;;;128.10;28.17;;;19.60;99.90;;;19.40;100.00;97734.69;4984186;28;20097;-73
2023/08/18 06:03:42;;;;;;;156.48;34.42;;;19.70;99.90;;;19.50;100.00;97740.13;4983854;28;20134;-73
2023/08/18 06:06:09;;;;;;;42.17;25.05;;;19.70;99.90;;;19.81;100.00;97746.50;4981577;28;20053;-72
2023/08/18 06:08:36;;;;;;;61.92;29.35;;;19.90;99.90;;;19.98;100.00;97745.22;4982667;28;20097;-73
2023/08/18 06:11:03;;;;;;;51.53;27.92;;;20.00;99.90;;;20.03;100.00;97742.22;4980629;28;20058;-74
2023/08/18 06:13:31;;;;;;;33.20;25.55;;;20.10;99.90;;;20.21;100.00;97746.03;4986625;28;20062;-73
2023/08/18 06:16:02;;;;;;;25.33;22.15;;;20.20;99.90;;;20.50;100.00;97744.66;4985711;28;20136;-73
2023/08/18 06:18:29;;;;;;;37.13;24.55;;;20.40;99.90;;;20.45;100.00;97731.84;4999992;28;20054;-74
2023/08/18 06:20:56;;;;;;;26.58;23.60;;;20.50;99.90;;;20.61;100.00;97729.66;5013659;28;20448;-74
2023/08/18 06:23:24;;;;;;;35.92;25.55;;;20.60;99.90;;;20.61;100.00;97721.75;4977775;28;20126;-74
2023/08/18 06:25:51;;;;;;;35.65;24.38;;;20.70;99.90;;;20.56;100.00;97721.31;4980567;28;20511;-71
2023/08/18 06:28:18;;;;;;;34.20;23.63;;;20.70;99.90;;;20.57;100.00;97715.06;4980706;28;20058;-73
2023/08/18 06:30:45;;;;;;;33.05;24.27;;;20.80;99.90;;;20.37;100.00;97721.09;4980556;28;20081;-73
2023/08/18 06:33:12;;;;;;;28.50;24.23;;;20.70;99.90;;;20.74;100.00;97718.97;4984180;28;20150;-73
2023/08/18 06:35:38;;;;;;;32.60;22.60;;;20.80;99.90;;;20.86;100.00;97709.19;4982709;28;20113;-73
2023/08/18 06:38:05;;;;;;;28.23;22.48;;;20.90;99.90;;;20.98;100.00;97704.72;4979332;28;20089;-73
2023/08/18 06:40:32;;;;;;;25.58;20.98;;;21.10;99.90;;;20.85;100.00;97708.38;4982219;28;20134;-73
2023/08/18 06:42:59;;;;;;;25.85;20.55;;;21.10;99.90;;;21.11;100.00;97697.44;4963999;28;20120;-73
2023/08/18 06:45:26;;;;;;;22.52;19.13;;;21.20;99.90;;;21.20;100.00;97694.03;5013286;28;20511;-73
2023/08/18 06:47:53;;;;;;;19.20;17.13;;;21.20;99.90;;;21.54;100.00;97693.84;4983740;28;20133;-74
2023/08/18 06:50:20;;;;;;;23.83;19.83;;;21.40;99.90;;;21.46;100.00;97681.31;4980345;28;20050;-72
2023/08/18 06:52:47;;;;;;;17.48;15.63;;;21.50;99.90;;;21.17;100.00;97677.63;4979500;28;20144;-73
2023/08/18 06:55:16;;;;;;;18.17;16.25;;;21.50;99.90;;;21.33;100.00;97680.66;4985749;28;20050;-73
2023/08/18 06:57:53;;;;;;;17.83;16.13;;;21.60;99.90;;;21.14;100.00;97672.59;4981644;28;20100;-73
2023/08/18 07:00:20;;;;;;;16.15;14.05;;;21.50;99.90;;;20.85;100.00;97674.06;4983063;28;20527;-74
2023/08/18 07:02:49;;;;;;;19.90;17.60;;;21.40;99.90;;;20.81;100.00;97677.09;4981221;28;20050;-73
2023/08/18 07:05:17;;;;;;;15.15;13.65;;;21.30;99.90;;;21.00;100.00;97677.22;4981455;28;20133;-73
2023/08/18 07:07:44;;;;;;;21.48;16.77;;;21.30;99.90;;;20.83;100.00;97681.28;4980814;28;20129;-71
2023/08/18 07:10:12;;;;;;;16.73;14.95;;;21.20;99.90;;;21.14;100.00;97675.22;4995677;28;20046;-73
2023/08/18 07:12:39;;;;;;;18.52;16.17;;;21.30;99.90;;;21.01;100.00;97673.63;4978375;28;20750;-72
2023/08/18 07:15:06;;;;;;;16.05;14.45;;;21.40;99.90;;;21.26;100.00;97669.78;4997362;28;20054;-73
2023/08/18 07:17:33;;;;;;;17.65;15.85;;;21.40;99.90;;;21.04;100.00;97677.81;4984272;28;20125;-73
2023/08/18 07:20:00;;;;;;;17.67;15.88;;;21.50;99.90;;;20.96;100.00;97686.38;4980699;28;20061;-74
2023/08/18 07:22:27;;;;;;;16.35;14.75;;;21.50;99.90;;;21.08;100.00;97684.53;4976025;28;20105;-73
2023/08/18 07:24:54;;;;;;;17.13;14.32;;;21.40;99.90;;;21.13;100.00;97690.25;4979347;28;20047;-74
2023/08/18 07:27:22;;;;;;;16.30;14.65;;;21.40;99.90;;;21.14;100.00;97691.91;4978077;28;20476;-74
2023/08/18 07:29:50;;;;;;;14.02;12.60;;;21.50;99.90;;;21.45;100.00;97689.34;4973105;28;20069;-73
2023/08/18 07:32:17;;;;;;;14.23;12.75;;;21.60;99.90;;;21.76;100.00;97692.84;4969370;28;20676;-73
2023/08/18 07:34:45;;;;;;;12.65;11.48;;;21.80;99.90;;;21.71;100.00;97690.59;4987118;28;20180;-74
2023/08/18 07:37:12;;;;;;;13.02;11.57;;;21.90;99.90;;;21.66;100.00;97699.88;4978998;28;20054;-73
2023/08/18 07:39:39;;;;;;;15.15;12.88;;;22.00;99.90;;;21.69;100.00;97699.59;4994432;28;20097;-73
2023/08/18 07:42:08;;;;;;;11.25;10.15;;;22.00;99.90;;;21.98;100.00;97701.53;4984269;28;20137;-73
2023/08/18 07:44:35;;;;;;;11.98;10.52;;;22.10;99.90;;;22.20;100.00;97690.75;4983793;28;20137;-73
2023/08/18 07:47:03;;;;;;;11.18;8.95;;;22.20;99.90;;;22.08;100.00;97687.41;4979531;28;20042;-74
2023/08/18 07:49:30;;;;;;;12.35;8.60;;;22.40;99.90;;;22.13;100.00;97694.91;4980126;28;20141;-72
2023/08/18 07:51:58;;;;;;;12.23;9.25;;;22.50;99.90;;;22.49;100.00;97685.56;5011711;28;20129;-73
2023/08/18 07:54:25;;;;;;;9.90;7.90;;;22.60;99.90;;;22.66;100.00;97684.03;4966470;28;20049;-73
2023/08/18 07:56:52;;;;;;;7.95;6.80;;;22.70;99.90;;;22.91;100.00;97676.50;4982575;28;20058;-73
2023/08/18 07:59:19;;;;;;;7.90;6.80;;;22.90;99.90;;;23.15;100.00;97670.81;4981146;28;20065;-72
2023/08/18 08:01:47;;;;;;;8.15;6.85;;;23.00;99.90;;;23.21;100.00;97672.03;4981228;28;20054;-73
2023/08/18 08:04:14;;;;;;;9.45;6.30;;;23.20;99.90;;;23.73;100.00;97675.09;4978105;28;20117;-72
2023/08/18 08:06:41;;;;;;;9.38;6.78;;;23.40;99.90;;;23.20;100.00;97670.38;4982494;28;20149;-73
2023/08/18 08:09:11;;;;;;;8.00;5.90;;;23.60;99.90;;;23.67;100.00;97665.91;4981072;28;20537;-73
2023/08/18 08:11:38;;;;;;;8.32;5.95;;;23.70;99.90;;;23.64;100.00;97660.91;4965401;28;20142;-72
2023/08/18 08:14:05;;;;;;;6.45;5.65;;;23.80;99.90;;;23.61;100.00;97660.38;4987948;28;20046;-73
2023/08/18 08:16:35;;;;;;;6.93;5.28;;;24.00;99.90;;;23.99;100.00;97657.56;4981745;28;20137;-74
2023/08/18 08:19:04;;;;;;;5.72;5.00;;;24.00;99.90;;;24.66;100.00;97648.50;4981474;28;20052;-74
2023/08/18 08:21:32;;;;;;;6.68;5.40;;;24.20;99.90;;;25.23;100.00;97641.00;4997587;28;20129;-73
2023/08/18 08:24:04;;;;;;;10.68;4.93;;;24.40;99.90;;;25.52;100.00;97634.50;4983254;28;20045;-74
2023/08/18 08:26:31;;;;;;;7.43;4.72;;;24.60;99.90;;;25.76;100.00;97628.50;4985715;28;20078;-73
2023/08/18 08:28:58;;;;;;;7.40;4.60;;;24.80;99.90;;;26.48;100.00;97620.91;4990138;28;20128;-73
2023/08/18 08:31:26;;;;;;;6.55;4.20;;;25.20;99.90;;;26.58;100.00;97624.25;4983349;28;20050;-74
2023/08/18 08:33:53;;;;;;;6.55;3.90;;;25.40;99.90;;;27.17;100.00;97618.75;4978661;28;20146;-71
2023/08/18 08:36:20;;;;;;;7.15;3.67;;;25.90;99.90;;;27.68;100.00;97629.94;4977576;28;20054;-74
2023/08/18 08:38:47;;;;;;;5.57;3.70;;;26.60;99.90;;;28.13;100.00;97630.28;4979241;28;20431;-73
2023/08/18 08:41:14;;;;;;;8.75;3.50;;;27.40;99.90;;;28.08;100.00;97635.34;4978807;28;20047;-74
2023/08/18 08:43:41;;;;;;;5.60;2.97;;;28.20;99.90;;;27.53;100.00;97621.03;4980704;28;20060;-74
2023/08/18 08:46:12;;;;;;;4.78;3.38;;;28.50;99.90;;;28.18;100.00;97621.75;4980230;28;20053;-74
2023/08/18 08:48:46;;;;;;;5.60;3.28;;;29.10;99.90;;;28.06;100.00;97619.47;4982351;28;20058;-71
2023/08/18 08:51:15;;;;;;;5.68;3.05;;;;;;;29.05;100.00;97621.47;5003600;28;20045;-74
2023/08/18 08:53:50;;;;;;;6.00;2.50;;;;;;;29.54;100.00;97629.03;5000856;28;20080;-72
2023/08/18 08:56:18;;;;;;;5.45;3.08;;;;;;;28.44;100.00;97640.09;4998279;28;20081;-72
2023/08/18 08:58:46;;;;;;;4.60;3.30;;;;;;;29.78;100.00;97636.75;4998846;28;20053;-72
2023/08/18 09:01:13;;;;;;;6.28;2.78;;;31.70;99.90;;;29.59;100.00;97642.66;4997782;28;20141;-71
2023/08/18 09:03:43;;;;;;;4.80;2.90;;;31.50;99.90;;;29.67;100.00;97645.22;4999574;28;20096;-71
2023/08/18 09:06:12;;;;;;;4.60;2.97;;;31.70;99.90;;;29.33;100.00;97640.41;5002768;28;20046;-72
2023/08/18 09:08:39;;;;;;;3.70;2.70;;;31.60;99.90;;;29.63;100.00;97641.28;4990790;28;20108;-72
2023/08/18 09:11:06;;;;;;;6.38;3.03;;;31.80;99.90;;;30.64;100.00;97636.94;5003015;28;20085;-72
2023/08/18 09:13:35;;;;;;;9.50;3.13;;;32.30;99.90;;;30.71;100.00;97644.22;5006911;28;20132;-72
2023/08/18 09:16:06;;;;;;;6.05;2.53;;;32.40;99.90;;;30.06;100.00;97640.59;5006611;28;20761;-72
2023/08/18 09:18:34;;;;;;;7.00;2.80;;;32.50;99.90;;;30.73;100.00;97640.34;5001071;28;20046;-72
2023/08/18 09:21:06;;;;;;;4.80;2.95;;;32.40;99.90;;;31.37;100.00;97647.47;5004357;28;20117;-71
2023/08/18 09:23:33;;;;;;;5.72;2.53;;;32.60;99.90;;;31.50;100.00;97644.09;5005566;28;20088;-71
2023/08/18 09:26:05;;;;;;;5.30;3.13;;;33.00;99.90;;;31.70;100.00;97652.22;5004356;28;20144;-70
2023/08/18 09:28:33;;;;;;;3.78;2.53;;;33.40;99.90;;;32.11;100.00;97656.78;5004840;28;20046;-70
2023/08/18 09:31:01;;;;;;;4.57;2.38;;;33.60;99.90;;;31.34;100.00;97653.25;4999139;28;20089;-74
2023/08/18 09:33:30;;;;;;;5.65;2.58;;;33.50;99.90;;;31.13;100.00;97654.09;5001674;28;20061;-71
2023/08/18 09:36:00;;;;;;;5.68;2.50;;;33.60;99.90;;;31.90;100.00;97652.34;4990462;28;20061;-73
2023/08/18 09:38:29;;;;;;;6.30;2.70;;;33.50;99.90;;;31.88;100.00;97651.72;5008108;28;20046;-72
2023/08/18 09:41:03;;;;;;;6.60;2.72;;;33.60;99.90;;;32.87;100.00;97650.41;4988285;28;20128;-72
2023/08/18 09:43:30;;;;;;;5.45;2.90;;;33.70;99.90;;;31.95;100.00;97654.44;5001373;28;20046;-71
2023/08/18 09:45:57;;;;;;;6.20;2.85;;;33.70;99.90;;;32.08;100.00;97657.19;5003050;28;20108;-72
2023/08/18 09:48:27;;;;;;;5.20;2.70;;;33.40;99.90;;;33.51;100.00;97646.25;5004385;28;20768;-71
2023/08/18 09:50:57;;;;;;;4.50;2.42;;;33.70;99.90;;;33.24;100.00;97648.16;5003071;28;20061;-72
2023/08/18 09:53:31;;;;;;;4.47;2.30;;;34.20;99.90;;;34.43;100.00;97648.84;5004609;28;20160;-73
2023/08/18 09:56:13;;;;;;;5.72;2.47;;;34.60;99.90;;;34.02;100.00;97644.66;4999736;28;20054;-73
2023/08/18 09:58:57;;;;;;;5.32;2.10;;;35.00;99.90;;;34.55;100.00;97639.03;5000572;28;20138;-72
2023/08/18 10:01:28;;;;;;;5.53;2.20;;;35.10;99.90;;;34.30;100.00;97645.16;5001845;28;20057;-72
2023/08/18 10:03:57;;;;;;;5.60;2.80;;;35.20;99.90;;;34.09;100.00;97642.78;5000409;28;20133;-73
2023/08/18 10:06:25;;;;;;;6.30;2.42;;;35.20;99.90;;;33.42;100.00;97637.56;5002743;28;20319;-72
2023/08/18 10:08:53;;;;;;;7.22;2.80;;;34.50;99.90;;;32.56;100.00;97646.41;5022685;28;20135;-73
2023/08/18 10:11:20;;;;;;;8.32;2.70;;;34.20;99.90;;;33.35;100.00;97636.75;5002243;28;20148;-74
2023/08/18 10:13:50;;;;;;;6.53;2.75;;;33.60;99.90;;;32.39;100.00;97632.53;5001308;28;20136;-73
2023/08/18 10:16:19;;;;;;;4.93;2.20;;;33.20;99.90;;;32.57;100.00;97636.50;4986114;28;20514;-73